Time;durP1;ratioP1;P1;durP2;ratioP2;P2;SDS_P1;SDS_P2;PMS_P1;PMS_P2;Temp;Humidity;BMP_temperature;BMP_pressure;BME280_temperature;BME280_humidity;BME280_pressure;Samples;Min_cycle;Max_cycle;Signal;HPM_P1;HPM_P2
2021/10/13 00:01:50;;;;;;;6.63;4.77;;;;;;;;;;4432169;32;20285;-54
2021/10/13 00:04:16;;;;;;;5.87;4.33;;;;;;;;;;4432182;32;20630;-54
2021/10/13 00:06:41;;;;;;;6.93;4.50;;;;;;;;;;4432001;32;20232;-55
2021/10/13 00:09:07;;;;;;;5.53;4.43;;;;;;;;;;4431805;32;20776;-54
2021/10/13 00:11:34;;;;;;;8.00;5.93;;;;;;;;;;4432941;32;20326;-54
2021/10/13 00:14:00;;;;;;;15.07;7.90;;;;;;;;;;4447796;32;20220;-54
2021/10/13 00:16:27;;;;;;;11.90;6.53;;;;;;;;;;4446355;32;20597;-54
2021/10/13 00:18:52;;;;;;;10.77;5.97;;;;;;;;;;4432309;32;20675;-54
2021/10/13 00:21:17;;;;;;;10.30;6.30;;;;;;;;;;4431761;32;20225;-54
2021/10/13 00:23:44;;;;;;;11.83;6.90;;;;;;;;;;4431294;32;20747;-53
2021/10/13 00:26:09;;;;;;;12.70;7.87;;;;;;;;;;4434267;32;20238;-55
2021/10/13 00:28:34;;;;;;;15.27;7.80;;;;;;;;;;4434967;32;20229;-53
2021/10/13 00:31:00;;;;;;;11.87;6.90;;;;;;;;;;4420587;32;20359;-53
2021/10/13 00:33:25;;;;;;;12.17;6.53;;;;;;;;;;4434612;32;20303;-53
2021/10/13 00:35:51;;;;;;;9.50;7.17;;;;;;;;;;4432640;32;20817;-53
2021/10/13 00:38:16;;;;;;;10.03;6.43;;;;;;;;;;4437969;32;20311;-52
2021/10/13 00:40:42;;;;;;;9.30;7.07;;;;;;;;;;4434922;32;20387;-53
2021/10/13 00:43:07;;;;;;;9.97;7.00;;;;;;;;;;4434784;32;20664;-54
2021/10/13 00:45:33;;;;;;;8.97;6.20;;;;;;;;;;4434836;32;20310;-55
2021/10/13 00:47:58;;;;;;;12.87;6.10;;;;;;;;;;4445004;32;20331;-53
2021/10/13 00:50:24;;;;;;;10.10;6.37;;;;;;;;;;4450181;32;20667;-53
2021/10/13 00:52:50;;;;;;;32.97;14.63;;;;;;;;;;4448656;32;20278;-53
2021/10/13 00:55:19;;;;;;;32.60;14.37;;;;;;;;;;4449757;32;20279;-54
2021/10/13 00:57:46;;;;;;;18.63;10.77;;;;;;;;;;4449629;32;20347;-53
2021/10/13 01:00:13;;;;;;;13.23;9.33;;;;;;;;;;4431360;32;20216;-54
2021/10/13 01:03:07;;;;;;;13.27;7.50;;;;;;;;;;4440142;32;20288;-53
2021/10/13 01:05:39;;;;;;;8.40;6.57;;;;;;;;;;4434161;32;20442;-53
2021/10/13 01:08:35;;;;;;;13.17;7.37;;;;;;;;;;4434143;32;20324;-54
2021/10/13 01:11:19;;;;;;;12.20;6.70;;;;;;;;;;4443228;32;20528;-53
2021/10/13 01:13:48;;;;;;;8.30;5.40;;;;;;;;;;4434157;32;20313;-53
2021/10/13 01:16:42;;;;;;;8.17;4.77;;;;;;;;;;4434414;32;20227;-53
2021/10/13 01:20:00;;;;;;;7.60;5.53;;;;;;;;;;4434290;32;20212;-53
2021/10/13 01:22:35;;;;;;;10.03;5.33;;;;;;;;;;4386161;32;20322;-54
2021/10/13 01:25:00;;;;;;;10.00;6.17;;;;;;;;;;4434623;32;20731;-54
2021/10/13 01:27:45;;;;;;;7.50;5.57;;;;;;;;;;4433831;32;20209;-52
2021/10/13 01:30:11;;;;;;;9.93;6.37;;;;;;;;;;4434388;32;20201;-54
2021/10/13 01:32:39;;;;;;;8.67;5.77;;;;;;;;;;4433446;32;20505;-53
2021/10/13 01:35:07;;;;;;;6.40;4.87;;;;;;;;;;4434195;32;20197;-53
2021/10/13 01:37:54;;;;;;;7.87;4.80;;;;;;;;;;4433200;32;20318;-53
2021/10/13 01:40:21;;;;;;;9.63;5.90;;;;;;;;;;4434214;32;20200;-53
2021/10/13 01:42:50;;;;;;;9.47;5.83;;;;;;;;;;4433375;32;20240;-53
2021/10/13 01:45:17;;;;;;;11.83;6.93;;;;;;;;;;4434060;32;20302;-54
2021/10/13 01:47:46;;;;;;;10.17;6.50;;;;;;;;;;4442178;32;20279;-53
2021/10/13 01:50:13;;;;;;;7.73;5.90;;;;;;;;;;4435147;32;20597;-53
2021/10/13 01:52:39;;;;;;;12.40;5.93;;;;;;;;;;4440053;32;20749;-53
2021/10/13 01:55:06;;;;;;;9.97;6.00;;;;;;;;;;4433623;32;20196;-54
2021/10/13 01:57:32;;;;;;;8.13;5.10;;;;;;;;;;4427091;32;20282;-54
2021/10/13 02:00:03;;;;;;;7.90;5.70;;;;;;;;;;4446565;32;20302;-55
2021/10/13 02:02:30;;;;;;;9.50;6.60;;;;;;;;;;4432756;32;20241;-54
2021/10/13 02:04:57;;;;;;;9.43;6.07;;;;;;;;;;4433455;32;20201;-54
2021/10/13 02:07:25;;;;;;;8.20;5.83;;;;;;;;;;4432962;32;20740;-54
2021/10/13 02:09:52;;;;;;;10.93;6.83;;;;;;;;;;4433919;32;20193;-54
2021/10/13 02:12:21;;;;;;;7.53;5.67;;;;;;;;;;4439176;32;20236;-53
2021/10/13 02:14:48;;;;;;;7.80;5.80;;;;;;;;;;4448806;32;20224;-53
2021/10/13 02:17:15;;;;;;;8.83;6.53;;;;;;;;;;4441820;32;20275;-53
2021/10/13 02:19:42;;;;;;;8.97;6.17;;;;;;;;;;4449348;32;20232;-53
2021/10/13 02:22:08;;;;;;;12.07;7.13;;;;;;;;;;4448357;32;20704;-53
2021/10/13 02:24:39;;;;;;;9.27;7.13;;;;;;;;;;4448306;32;20337;-53
2021/10/13 02:27:09;;;;;;;8.50;5.93;;;;;;;;;;4444230;32;20323;-53
2021/10/13 02:29:37;;;;;;;5.70;4.13;;;;;;;;;;4433668;32;20245;-54
2021/10/13 02:32:02;;;;;;;6.20;4.43;;;;;;;;;;4433112;32;20213;-54
2021/10/13 02:34:28;;;;;;;8.07;4.63;;;;;;;;;;4433098;32;20264;-54
2021/10/13 02:36:53;;;;;;;5.57;3.90;;;;;;;;;;4432916;32;20204;-55
2021/10/13 02:39:19;;;;;;;5.70;4.00;;;;;;;;;;4433083;32;20325;-54
2021/10/13 02:41:44;;;;;;;6.83;4.27;;;;;;;;;;4433007;32;20371;-54
2021/10/13 02:44:10;;;;;;;6.80;4.27;;;;;;;;;;4433013;32;20272;-54
2021/10/13 02:46:48;;;;;;;6.93;4.50;;;;;;;;;;4434269;32;20235;-54
2021/10/13 02:49:32;;;;;;;5.43;3.70;;;;;;;;;;4448763;32;20259;-54
2021/10/13 02:52:26;;;;;;;15.40;4.77;;;;;;;;;;4448175;32;20251;-54
2021/10/13 02:55:07;;;;;;;11.00;4.57;;;;;;;;;;4448429;32;20234;-54
2021/10/13 02:57:52;;;;;;;5.33;3.90;;;;;;;;;;4448418;32;20869;-54
2021/10/13 03:00:19;;;;;;;5.23;4.20;;;;;;;;;;4443082;32;20212;-54
2021/10/13 03:03:03;;;;;;;6.70;4.80;;;;;;;;;;4438796;32;20723;-54
2021/10/13 03:05:29;;;;;;;6.73;5.80;;;;;;;;;;4432606;32;20242;-54
2021/10/13 03:07:57;;;;;;;10.73;7.83;;;;;;;;;;4432442;32;20414;-54
2021/10/13 03:10:25;;;;;;;12.57;9.40;;;;;;;;;;4433026;32;20910;-53
2021/10/13 03:12:53;;;;;;;17.27;8.33;;;;;;;;;;4433419;32;20273;-53
2021/10/13 03:15:20;;;;;;;13.00;8.27;;;;;;;;;;4432656;32;20250;-54
2021/10/13 03:17:50;;;;;;;14.40;9.53;;;;;;;;;;4441807;32;20872;-53
2021/10/13 03:20:17;;;;;;;15.93;12.77;;;;;;;;;;4448520;32;20257;-54
2021/10/13 03:22:44;;;;;;;28.00;18.70;;;;;;;;;;4447746;32;20792;-54
2021/10/13 03:25:09;;;;;;;24.17;18.37;;;;;;;;;;4447832;32;20355;-55
2021/10/13 03:27:35;;;;;;;18.93;14.13;;;;;;;;;;4439632;32;20285;-54
2021/10/13 03:30:00;;;;;;;11.07;8.17;;;;;;;;;;4432824;32;20665;-54
2021/10/13 03:32:26;;;;;;;7.60;6.50;;;;;;;;;;4431925;32;20213;-53
2021/10/13 03:34:52;;;;;;;8.73;6.23;;;;;;;;;;4432592;32;20675;-54
2021/10/13 03:37:17;;;;;;;8.10;6.10;;;;;;;;;;4431555;32;20261;-54
2021/10/13 03:39:47;;;;;;;7.57;6.77;;;;;;;;;;4432392;32;20296;-53
2021/10/13 03:42:13;;;;;;;8.80;5.37;;;;;;;;;;4431854;32;20284;-54
2021/10/13 03:44:38;;;;;;;9.73;6.50;;;;;;;;;;4432745;32;20250;-54
2021/10/13 03:47:05;;;;;;;9.73;6.57;;;;;;;;;;4431715;32;20216;-54
2021/10/13 03:49:31;;;;;;;9.57;6.53;;;;;;;;;;4418678;32;20325;-54
2021/10/13 03:51:56;;;;;;;9.90;7.03;;;;;;;;;;4431852;32;20316;-54
2021/10/13 03:54:22;;;;;;;7.23;5.43;;;;;;;;;;4432102;32;20299;-54
2021/10/13 03:56:47;;;;;;;8.40;6.50;;;;;;;;;;4431886;32;20761;-54
2021/10/13 03:59:12;;;;;;;8.20;6.03;;;;;;;;;;4432207;32;20299;-53
2021/10/13 04:01:38;;;;;;;7.93;6.57;;;;;;;;;;4431274;32;20690;-53
2021/10/13 04:04:04;;;;;;;10.67;6.83;;;;;;;;;;4431896;32;20397;-53
2021/10/13 04:06:29;;;;;;;13.43;7.43;;;;;;;;;;4433855;32;20712;-53
2021/10/13 04:08:54;;;;;;;14.43;7.50;;;;;;;;;;4439774;32;20269;-53
2021/10/13 04:11:20;;;;;;;14.80;9.23;;;;;;;;;;4436555;32;20313;-53
2021/10/13 04:13:46;;;;;;;12.63;9.10;;;;;;;;;;4432549;32;20306;-54
2021/10/13 04:16:12;;;;;;;10.57;7.27;;;;;;;;;;4432055;32;20232;-53
2021/10/13 04:18:37;;;;;;;9.73;7.23;;;;;;;;;;4431384;32;20270;-53
2021/10/13 04:21:03;;;;;;;13.70;9.40;;;;;;;;;;4430793;32;20771;-54
2021/10/13 04:23:28;;;;;;;14.60;8.77;;;;;;;;;;4433424;32;20301;-53
2021/10/13 04:25:54;;;;;;;12.67;7.90;;;;;;;;;;4432100;32;20298;-54
2021/10/13 04:28:19;;;;;;;13.80;8.37;;;;;;;;;;4431336;32;20325;-54
2021/10/13 04:30:44;;;;;;;12.57;8.17;;;;;;;;;;4431731;32;20716;-55
2021/10/13 04:33:10;;;;;;;20.43;12.80;;;;;;;;;;4431433;32;20300;-54
2021/10/13 04:35:35;;;;;;;30.10;17.27;;;;;;;;;;4432093;32;20523;-56
2021/10/13 04:38:05;;;;;;;34.20;21.03;;;;;;;;;;4431356;32;20645;-54
2021/10/13 04:40:32;;;;;;;36.57;21.27;;;;;;;;;;4431977;32;20709;-53
2021/10/13 04:42:58;;;;;;;29.93;16.77;;;;;;;;;;4431723;32;20224;-54
2021/10/13 04:45:24;;;;;;;35.87;22.30;;;;;;;;;;4431871;32;20319;-55
2021/10/13 04:47:50;;;;;;;43.07;24.07;;;;;;;;;;4440837;32;20682;-54
2021/10/13 04:50:15;;;;;;;71.20;38.00;;;;;;;;;;4446958;32;20382;-53
2021/10/13 04:52:40;;;;;;;58.23;29.33;;;;;;;;;;4446656;32;20212;-53
2021/10/13 04:55:07;;;;;;;37.27;18.73;;;;;;;;;;4447300;32;20335;-54
2021/10/13 04:57:32;;;;;;;22.43;11.90;;;;;;;;;;4446864;32;20428;-54
2021/10/13 04:59:58;;;;;;;18.27;10.07;;;;;;;;;;4443966;32;20334;-54
2021/10/13 05:02:23;;;;;;;27.53;14.43;;;;;;;;;;4437729;32;20362;-54
2021/10/13 05:04:48;;;;;;;25.27;15.27;;;;;;;;;;4432111;32;20355;-54
2021/10/13 05:07:15;;;;;;;20.93;12.77;;;;;;;;;;4436935;32;20239;-54
2021/10/13 05:09:41;;;;;;;17.90;12.33;;;;;;;;;;4446878;32;20255;-54
2021/10/13 05:12:06;;;;;;;18.20;11.77;;;;;;;;;;4440000;32;20225;-55
2021/10/13 05:14:32;;;;;;;21.13;12.00;;;;;;;;;;4434917;32;20300;-55
2021/10/13 05:16:57;;;;;;;18.20;12.20;;;;;;;;;;4441104;32;20228;-53
2021/10/13 05:19:22;;;;;;;18.50;13.40;;;;;;;;;;4434599;32;20331;-54
2021/10/13 05:21:48;;;;;;;32.70;19.10;;;;;;;;;;4433890;32;20378;-54
2021/10/13 05:24:13;;;;;;;20.67;12.97;;;;;;;;;;4435940;32;20315;-53
2021/10/13 05:26:38;;;;;;;21.30;13.13;;;;;;;;;;4437019;32;20333;-53
2021/10/13 05:29:04;;;;;;;17.77;12.50;;;;;;;;;;4434335;32;20414;-54
2021/10/13 05:31:29;;;;;;;22.67;13.20;;;;;;;;;;4433880;32;20228;-53
2021/10/13 05:33:55;;;;;;;23.33;11.77;;;;;;;;;;4434314;32;20308;-54
2021/10/13 05:36:20;;;;;;;16.93;12.23;;;;;;;;;;4433866;32;20314;-55
2021/10/13 05:38:46;;;;;;;19.80;10.43;;;;;;;;;;4434091;32;20228;-54
2021/10/13 05:41:11;;;;;;;19.47;11.70;;;;;;;;;;4433544;32;20632;-54
2021/10/13 05:43:37;;;;;;;22.07;12.97;;;;;;;;;;4434187;32;20604;-54
2021/10/13 05:46:02;;;;;;;25.17;12.47;;;;;;;;;;4432168;32;20292;-54
2021/10/13 05:48:27;;;;;;;19.07;11.10;;;;;;;;;;4431062;32;20260;-55
2021/10/13 05:50:53;;;;;;;16.50;11.40;;;;;;;;;;4444279;32;20341;-54
2021/10/13 05:53:20;;;;;;;17.20;10.40;;;;;;;;;;4434954;32;20778;-55
2021/10/13 05:55:46;;;;;;;23.40;13.93;;;;;;;;;;4433818;32;20233;-54
2021/10/13 05:58:14;;;;;;;27.13;15.97;;;;;;;;;;4433476;32;20308;-55
2021/10/13 06:00:39;;;;;;;29.80;18.73;;;;;;;;;;4436943;32;20811;-55
2021/10/13 06:03:05;;;;;;;27.13;17.90;;;;;;;;;;4433517;32;20374;-54
2021/10/13 06:05:30;;;;;;;35.10;18.60;;;;;;;;;;4433595;32;20379;-53
2021/10/13 06:07:56;;;;;;;23.97;16.57;;;;;;;;;;4441574;32;20290;-54
2021/10/13 06:10:21;;;;;;;24.37;15.77;;;;;;;;;;4449112;32;20287;-54
2021/10/13 06:12:47;;;;;;;24.20;16.70;;;;;;;;;;4445858;32;20353;-54
2021/10/13 06:15:12;;;;;;;18.77;12.10;;;;;;;;;;4449443;32;20328;-54
2021/10/13 06:17:38;;;;;;;21.33;13.57;;;;;;;;;;4439599;32;20205;-53
2021/10/13 06:20:05;;;;;;;18.20;12.07;;;;;;;;;;4433806;32;20279;-56
2021/10/13 06:22:30;;;;;;;19.03;13.60;;;;;;;;;;4432265;32;20328;-54
2021/10/13 06:24:56;;;;;;;24.17;14.87;;;;;;;;;;4433324;32;20666;-54
2021/10/13 06:27:23;;;;;;;24.80;14.70;;;;;;;;;;4433101;32;20233;-54
2021/10/13 06:29:48;;;;;;;19.97;14.23;;;;;;;;;;4433801;32;20240;-54
2021/10/13 06:32:14;;;;;;;23.27;14.37;;;;;;;;;;4432972;32;20734;-54
2021/10/13 06:34:39;;;;;;;28.03;17.83;;;;;;;;;;4434125;32;20344;-54
2021/10/13 06:37:05;;;;;;;22.77;14.67;;;;;;;;;;4436979;32;20416;-55
2021/10/13 06:39:30;;;;;;;20.50;15.03;;;;;;;;;;4448940;32;20232;-53
2021/10/13 06:41:55;;;;;;;31.17;16.83;;;;;;;;;;4447568;32;20366;-53
2021/10/13 06:44:21;;;;;;;25.23;13.47;;;;;;;;;;4448984;32;20285;-54
2021/10/13 06:46:50;;;;;;;24.67;16.90;;;;;;;;;;4433382;32;20274;-54
2021/10/13 06:49:15;;;;;;;30.03;18.77;;;;;;;;;;4433562;32;20278;-54
2021/10/13 06:51:42;;;;;;;37.17;21.03;;;;;;;;;;4432892;32;20209;-53
2021/10/13 06:54:08;;;;;;;28.00;16.80;;;;;;;;;;4432790;32;20855;-54
2021/10/13 06:56:33;;;;;;;33.57;21.37;;;;;;;;;;4432128;32;20304;-54
2021/10/13 06:58:58;;;;;;;29.20;16.30;;;;;;;;;;4433290;32;20679;-53
2021/10/13 07:01:24;;;;;;;23.57;17.23;;;;;;;;;;4438613;32;20291;-54
2021/10/13 07:03:49;;;;;;;33.00;21.53;;;;;;;;;;4432375;32;20251;-54
2021/10/13 07:06:15;;;;;;;37.80;21.17;;;;;;;;;;4441380;32;20217;-54
2021/10/13 07:08:40;;;;;;;33.37;22.83;;;;;;;;;;4420267;32;20244;-54
2021/10/13 07:11:09;;;;;;;32.93;18.93;;;;;;;;;;4437712;32;20773;-54
2021/10/13 07:13:35;;;;;;;37.83;22.03;;;;;;;;;;4441003;32;20747;-54
2021/10/13 07:16:00;;;;;;;35.40;25.60;;;;;;;;;;4433859;32;20355;-54
2021/10/13 07:18:25;;;;;;;29.87;20.17;;;;;;;;;;4432339;32;20541;-54
2021/10/13 07:20:51;;;;;;;24.23;18.13;;;;;;;;;;4432801;32;20290;-53
2021/10/13 07:23:16;;;;;;;27.43;18.07;;;;;;;;;;4434769;32;20258;-53
2021/10/13 07:25:42;;;;;;;28.63;17.97;;;;;;;;;;4438744;32;20676;-53
2021/10/13 07:28:07;;;;;;;27.77;18.17;;;;;;;;;;4436107;32;20260;-53
2021/10/13 07:30:33;;;;;;;30.63;18.53;;;;;;;;;;4443883;32;20349;-54
2021/10/13 07:32:58;;;;;;;31.77;19.50;;;;;;;;;;4436097;32;20683;-53
2021/10/13 07:35:27;;;;;;;27.63;18.07;;;;;;;;;;4437518;32;20334;-55
2021/10/13 07:37:55;;;;;;;26.93;18.73;;;;;;;;;;4444686;32;20632;-54
2021/10/13 07:40:21;;;;;;;23.57;15.47;;;;;;;;;;4437168;32;20228;-53
2021/10/13 07:42:48;;;;;;;24.53;18.03;;;;;;;;;;4435933;32;20546;-53
2021/10/13 07:45:15;;;;;;;23.20;16.40;;;;;;;;;;4436194;32;20314;-55
2021/10/13 07:47:41;;;;;;;26.87;16.60;;;;;;;;;;4438733;32;20298;-53
2021/10/13 07:50:07;;;;;;;24.40;15.17;;;;;;;;;;4427144;32;20731;-54
2021/10/13 07:52:32;;;;;;;21.77;14.57;;;;;;;;;;4436009;32;20785;-54
2021/10/13 07:54:58;;;;;;;18.60;14.60;;;;;;;;;;4431892;32;20295;-55
2021/10/13 07:57:23;;;;;;;19.77;13.83;;;;;;;;;;4431968;32;20232;-53
2021/10/13 07:59:50;;;;;;;25.87;15.60;;;;;;;;;;4434148;32;20363;-53
2021/10/13 08:02:16;;;;;;;19.83;14.27;;;;;;;;;;4439651;32;20317;-53
2021/10/13 08:04:41;;;;;;;20.77;14.67;;;;;;;;;;4435176;32;20244;-54
2021/10/13 08:07:07;;;;;;;22.83;16.07;;;;;;;;;;4444236;32;20700;-55
2021/10/13 08:09:33;;;;;;;30.73;17.27;;;;;;;;;;4437300;32;20336;-54
2021/10/13 08:11:59;;;;;;;28.43;16.60;;;;;;;;;;4443176;32;20220;-53
2021/10/13 08:14:24;;;;;;;20.00;13.13;;;;;;;;;;4436558;32;20307;-53
2021/10/13 08:16:50;;;;;;;17.27;13.17;;;;;;;;;;4444585;32;20288;-53
2021/10/13 08:19:15;;;;;;;20.90;11.67;;;;;;;;;;4432175;32;20252;-53
2021/10/13 08:21:41;;;;;;;21.13;12.97;;;;;;;;;;4435547;32;20339;-53
2021/10/13 08:24:06;;;;;;;15.67;11.27;;;;;;;;;;4431971;32;20645;-54
2021/10/13 08:26:32;;;;;;;18.47;14.40;;;;;;;;;;4442594;32;20235;-54
2021/10/13 08:28:57;;;;;;;21.43;15.57;;;;;;;;;;4434036;32;20221;-54
2021/10/13 08:31:23;;;;;;;20.27;14.23;;;;;;;;;;4442160;32;20315;-54
2021/10/13 08:33:49;;;;;;;16.87;12.83;;;;;;;;;;4431672;32;20714;-54
2021/10/13 08:36:14;;;;;;;13.43;10.57;;;;;;;;;;4431504;32;20662;-54
2021/10/13 08:38:40;;;;;;;13.87;10.60;;;;;;;;;;4443487;32;20256;-54
2021/10/13 08:41:05;;;;;;;14.67;11.37;;;;;;;;;;4434420;32;20416;-53
2021/10/13 08:43:31;;;;;;;16.33;9.17;;;;;;;;;;4433150;32;20472;-54
2021/10/13 08:45:57;;;;;;;17.47;10.47;;;;;;;;;;4434589;32;20287;-54
2021/10/13 08:48:22;;;;;;;16.20;10.37;;;;;;;;;;4434513;32;20621;-53
2021/10/13 08:50:49;;;;;;;11.87;9.93;;;;;;;;;;4435206;32;20356;-54
2021/10/13 08:53:17;;;;;;;13.70;9.60;;;;;;;;;;4437958;32;20581;-54
2021/10/13 08:55:44;;;;;;;11.20;8.93;;;;;;;;;;4437730;32;20304;-54
2021/10/13 08:58:20;;;;;;;14.97;10.07;;;;;;;;;;4443205;32;20259;-54
2021/10/13 09:00:51;;;;;;;10.67;9.00;;;;;;;;;;4441859;32;20230;-54
2021/10/13 09:03:30;;;;;;;11.63;9.87;;;;;;;;;;4447075;32;20296;-53
2021/10/13 09:06:11;;;;;;;11.27;8.73;;;;;;;;;;4434629;32;20243;-53
2021/10/13 09:09:11;;;;;;;14.83;9.70;;;;;;;;;;4434696;32;20239;-53
2021/10/13 09:11:40;;;;;;;14.63;10.43;;;;;;;;;;4435374;32;20228;-54
2021/10/13 09:14:18;;;;;;;14.40;10.37;;;;;;;;;;4434497;32;20229;-54
2021/10/13 09:17:00;;;;;;;14.10;10.33;;;;;;;;;;4446334;32;20310;-54
2021/10/13 09:19:34;;;;;;;13.47;10.23;;;;;;;;;;4438753;32;20263;-54
2021/10/13 09:22:06;;;;;;;12.00;10.17;;;;;;;;;;4441531;32;20638;-54
2021/10/13 09:24:33;;;;;;;13.30;9.07;;;;;;;;;;4434902;32;20628;-53
2021/10/13 09:27:20;;;;;;;16.03;10.23;;;;;;;;;;4435330;32;20296;-53
2021/10/13 09:29:47;;;;;;;19.13;9.80;;;;;;;;;;4443539;32;20224;-53
2021/10/13 09:32:13;;;;;;;14.83;9.00;;;;;;;;;;4437921;32;20422;-53
2021/10/13 09:34:54;;;;;;;15.67;11.10;;;;;;;;;;4434097;32;20306;-53
2021/10/13 09:37:21;;;;;;;13.93;10.70;;;;;;;;;;4437317;32;20224;-53
2021/10/13 09:39:56;;;;;;;15.53;10.67;;;;;;;;;;4442973;32;20274;-53
2021/10/13 09:42:22;;;;;;;14.70;9.90;;;;;;;;;;4437670;32;20285;-53
2021/10/13 09:44:56;;;;;;;11.13;9.23;;;;;;;;;;4436459;32;20367;-55
2021/10/13 09:47:31;;;;;;;15.30;10.57;;;;;;;;;;4435835;32;20269;-53
2021/10/13 09:49:57;;;;;;;17.53;11.40;;;;;;;;;;4441232;32;20224;-55
2021/10/13 09:52:29;;;;;;;16.30;10.43;;;;;;;;;;4424880;32;20315;-54
2021/10/13 09:55:08;;;;;;;13.73;10.60;;;;;;;;;;4446816;32;20240;-53
2021/10/13 09:57:48;;;;;;;11.73;8.93;;;;;;;;;;4439400;32;20358;-53
2021/10/13 10:00:25;;;;;;;14.00;10.23;;;;;;;;;;4443561;32;20302;-53
2021/10/13 10:02:56;;;;;;;13.33;10.33;;;;;;;;;;4434582;32;20645;-53
2021/10/13 10:05:37;;;;;;;12.23;9.70;;;;;;;;;;4431458;32;20622;-54
2021/10/13 10:08:11;;;;;;;17.37;10.57;;;;;;;;;;4430116;32;20232;-53
2021/10/13 10:10:57;;;;;;;16.53;11.03;;;;;;;;;;4433921;32;20712;-54
2021/10/13 10:13:33;;;;;;;18.30;11.50;;;;;;;;;;4432822;32;20359;-54
2021/10/13 10:15:58;;;;;;;18.93;11.10;;;;;;;;;;4445469;32;20638;-53
2021/10/13 10:18:36;;;;;;;15.17;10.50;;;;;;;;;;4433135;32;20295;-55
2021/10/13 10:21:24;;;;;;;17.40;12.10;;;;;;;;;;4433414;32;20240;-53
2021/10/13 10:23:57;;;;;;;25.03;15.87;;;;;;;;;;4419850;32;20530;-54
2021/10/13 10:26:26;;;;;;;23.23;14.20;;;;;;;;;;4436394;32;20303;-54
2021/10/13 10:28:54;;;;;;;23.13;14.27;;;;;;;;;;4442850;32;20259;-54
2021/10/13 10:31:29;;;;;;;18.27;12.70;;;;;;;;;;4428136;32;20292;-54
2021/10/13 10:34:03;;;;;;;20.73;12.97;;;;;;;;;;4436549;32;20282;-54
2021/10/13 10:36:29;;;;;;;19.50;12.07;;;;;;;;;;4433091;32;20224;-55
2021/10/13 10:38:55;;;;;;;16.77;12.97;;;;;;;;;;4433166;32;20224;-54
2021/10/13 10:41:20;;;;;;;19.20;13.77;;;;;;;;;;4439620;32;20229;-54
2021/10/13 10:43:46;;;;;;;17.37;14.10;;;;;;;;;;4445386;32;20240;-56
2021/10/13 10:46:11;;;;;;;17.67;12.30;;;;;;;;;;4433912;32;20243;-55
2021/10/13 10:48:45;;;;;;;14.50;12.10;;;;;;;;;;4437613;32;20752;-53
2021/10/13 10:51:11;;;;;;;14.13;11.50;;;;;;;;;;4439799;32;20289;-54
2021/10/13 10:53:44;;;;;;;15.67;11.30;;;;;;;;;;4438391;32;20283;-54
2021/10/13 10:56:15;;;;;;;17.67;11.57;;;;;;;;;;4434109;32;20217;-54
2021/10/13 10:59:04;;;;;;;14.17;10.63;;;;;;;;;;4438030;32;20244;-55
2021/10/13 11:01:30;;;;;;;12.70;10.23;;;;;;;;;;4440111;32;20252;-55
2021/10/13 11:03:56;;;;;;;14.87;10.17;;;;;;;;;;4433162;32;20827;-54
2021/10/13 11:06:21;;;;;;;16.73;11.40;;;;;;;;;;4423765;32;20665;-54
2021/10/13 11:09:04;;;;;;;17.70;11.73;;;;;;;;;;4432875;32;20707;-56
2021/10/13 11:11:41;;;;;;;13.13;9.57;;;;;;;;;;4442213;32;20204;-56
2021/10/13 11:14:08;;;;;;;17.93;10.80;;;;;;;;;;4435559;32;20525;-55
2021/10/13 11:16:36;;;;;;;14.90;11.63;;;;;;;;;;4444220;32;20359;-54
2021/10/13 11:19:09;;;;;;;17.27;11.93;;;;;;;;;;4433023;32;20259;-55
2021/10/13 11:21:35;;;;;;;14.63;9.90;;;;;;;;;;4432376;32;20432;-55
2021/10/13 11:24:01;;;;;;;16.73;11.60;;;;;;;;;;4419102;32;20264;-54
2021/10/13 11:26:27;;;;;;;21.43;12.20;;;;;;;;;;4432960;32;20687;-54
2021/10/13 11:28:53;;;;;;;15.77;10.97;;;;;;;;;;4433051;32;20308;-55
2021/10/13 11:31:18;;;;;;;17.73;10.70;;;;;;;;;;4438727;32;20208;-54
2021/10/13 11:33:45;;;;;;;19.37;11.03;;;;;;;;;;4432922;32;20284;-54
2021/10/13 11:36:10;;;;;;;15.17;11.93;;;;;;;;;;4444925;32;20625;-54
2021/10/13 11:38:39;;;;;;;18.53;11.60;;;;;;;;;;4436742;32;20344;-55
2021/10/13 11:41:11;;;;;;;15.20;10.27;;;;;;;;;;4439817;32;20212;-55
2021/10/13 11:43:37;;;;;;;15.67;11.30;;;;;;;;;;4432886;32;20255;-54
2021/10/13 11:46:04;;;;;;;17.77;11.63;;;;;;;;;;4441670;32;20337;-55
2021/10/13 11:48:32;;;;;;;13.00;9.07;;;;;;;;;;4432000;32;20236;-54
2021/10/13 11:51:00;;;;;;;16.13;10.50;;;;;;;;;;4437744;32;20271;-54
2021/10/13 11:53:26;;;;;;;13.60;10.20;;;;;;;;;;4431998;32;20294;-54
2021/10/13 11:55:52;;;;;;;12.50;9.43;;;;;;;;;;4432945;32;20321;-54
2021/10/13 11:58:30;;;;;;;13.70;8.60;;;;;;;;;;4435597;32;20698;-54
2021/10/13 12:00:56;;;;;;;12.63;9.93;;;;;;;;;;4442298;32;20230;-54
2021/10/13 12:03:32;;;;;;;11.43;8.73;;;;;;;;;;4435646;32;20233;-54
2021/10/13 12:05:58;;;;;;;18.57;10.97;;;;;;;;;;4437371;32;20287;-54
2021/10/13 12:08:27;;;;;;;15.57;10.27;;;;;;;;;;4443397;32;20666;-54
2021/10/13 12:10:54;;;;;;;14.27;10.23;;;;;;;;;;4440027;32;20236;-55
2021/10/13 12:13:31;;;;;;;12.83;9.90;;;;;;;;;;4437721;32;20307;-55
2021/10/13 12:16:00;;;;;;;13.40;9.43;;;;;;;;;;4445297;32;20228;-55
2021/10/13 12:18:28;;;;;;;15.37;9.30;;;;;;;;;;4435188;32;20232;-55
2021/10/13 12:21:02;;;;;;;14.27;9.07;;;;;;;;;;4441922;32;20287;-54
2021/10/13 12:23:31;;;;;;;13.80;9.20;;;;;;;;;;4428199;32;20236;-55
2021/10/13 12:25:56;;;;;;;16.20;9.73;;;;;;;;;;4435467;32;20239;-55
2021/10/13 12:28:27;;;;;;;13.63;9.87;;;;;;;;;;4437953;32;20536;-54
2021/10/13 12:31:03;;;;;;;17.17;8.93;;;;;;;;;;4444873;32;20228;-54
2021/10/13 12:33:45;;;;;;;12.10;8.43;;;;;;;;;;4444981;32;20235;-54
2021/10/13 12:36:24;;;;;;;12.20;8.73;;;;;;;;;;4442691;32;20636;-53
2021/10/13 12:38:59;;;;;;;14.27;10.43;;;;;;;;;;4421010;32;20703;-54
2021/10/13 12:41:33;;;;;;;19.97;11.60;;;;;;;;;;4436607;32;20216;-54
2021/10/13 12:43:59;;;;;;;14.77;11.20;;;;;;;;;;4441500;32;20254;-54
2021/10/13 12:46:33;;;;;;;14.07;10.30;;;;;;;;;;4436058;32;20876;-54
2021/10/13 12:49:12;;;;;;;17.13;10.83;;;;;;;;;;4433172;32;20246;-54
2021/10/13 12:52:03;;;;;;;14.43;9.80;;;;;;;;;;4420927;32;20707;-54
2021/10/13 12:54:31;;;;;;;15.70;9.83;;;;;;;;;;4438219;32;20598;-54
2021/10/13 12:56:57;;;;;;;16.10;11.67;;;;;;;;;;4443744;32;20235;-54
2021/10/13 12:59:23;;;;;;;13.67;10.60;;;;;;;;;;4433812;32;20398;-54
2021/10/13 13:01:51;;;;;;;16.03;10.13;;;;;;;;;;4429857;32;20797;-54
2021/10/13 13:04:16;;;;;;;15.80;10.53;;;;;;;;;;4417971;32;20290;-54
2021/10/13 13:06:42;;;;;;;12.73;9.63;;;;;;;;;;4431207;32;20692;-54
2021/10/13 13:09:07;;;;;;;14.43;10.30;;;;;;;;;;4417339;32;20306;-53
2021/10/13 13:11:33;;;;;;;14.53;10.77;;;;;;;;;;4436945;32;20702;-54
2021/10/13 13:13:59;;;;;;;19.27;11.80;;;;;;;;;;4440898;32;20252;-54
2021/10/13 13:16:26;;;;;;;21.53;13.53;;;;;;;;;;4440764;32;20212;-54
2021/10/13 13:18:52;;;;;;;17.17;12.23;;;;;;;;;;4424023;32;20256;-54
2021/10/13 13:21:19;;;;;;;17.40;11.60;;;;;;;;;;4423734;32;20233;-55
2021/10/13 13:23:45;;;;;;;12.17;9.93;;;;;;;;;;4434581;32;20740;-55
2021/10/13 13:26:10;;;;;;;13.63;10.20;;;;;;;;;;4448015;32;20208;-53
2021/10/13 13:28:39;;;;;;;14.03;11.43;;;;;;;;;;4444862;32;20726;-53
2021/10/13 13:31:05;;;;;;;19.43;13.30;;;;;;;;;;4438825;32;20718;-54
2021/10/13 13:33:31;;;;;;;17.13;12.07;;;;;;;;;;4448777;32;20291;-54
2021/10/13 13:35:56;;;;;;;18.47;8.83;;;;;;;;;;4448380;32;20347;-54
2021/10/13 13:38:22;;;;;;;13.67;8.07;;;;;;;;;;4449944;32;20307;-54
2021/10/13 13:40:47;;;;;;;12.23;8.57;;;;;;;;;;4424333;32;20410;-55
2021/10/13 13:43:13;;;;;;;26.53;16.60;;;;;;;;;;4445188;32;20296;-54
2021/10/13 13:45:39;;;;;;;23.70;16.13;;;;;;;;;;4441547;32;20382;-54
2021/10/13 13:48:06;;;;;;;37.87;21.57;;;;;;;;;;4434472;32;20357;-54
2021/10/13 13:50:31;;;;;;;37.90;20.53;;;;;;;;;;4434060;32;20260;-54
2021/10/13 13:52:57;;;;;;;176.33;90.27;;;;;;;;;;4434314;32;20328;-53
2021/10/13 13:55:22;;;;;;;70.93;40.17;;;;;;;;;;4433878;32;20396;-54
2021/10/13 13:57:49;;;;;;;42.40;26.13;;;;;;;;;;4434111;32;20357;-55
2021/10/13 14:00:15;;;;;;;33.83;20.83;;;;;;;;;;4420139;32;20274;-54
2021/10/13 14:02:41;;;;;;;19.80;14.47;;;;;;;;;;4419624;32;20264;-54
2021/10/13 14:05:07;;;;;;;38.47;21.07;;;;;;;;;;4439330;32;20304;-54
2021/10/13 14:07:34;;;;;;;53.10;27.97;;;;;;;;;;4447838;32;20328;-54
2021/10/13 14:10:02;;;;;;;46.50;26.73;;;;;;;;;;4443668;32;20282;-53
2021/10/13 14:12:27;;;;;;;64.03;32.83;;;;;;;;;;4442264;32;20221;-54
2021/10/13 14:14:53;;;;;;;36.73;22.27;;;;;;;;;;4429676;32;20731;-54
2021/10/13 14:17:18;;;;;;;29.63;20.40;;;;;;;;;;4433419;32;20295;-54
2021/10/13 14:19:44;;;;;;;17.90;13.23;;;;;;;;;;4433305;32;20262;-53
2021/10/13 14:22:09;;;;;;;14.00;10.97;;;;;;;;;;4433878;32;20303;-54
2021/10/13 14:24:35;;;;;;;14.67;9.83;;;;;;;;;;4433347;32;20652;-55
2021/10/13 14:27:01;;;;;;;17.20;11.00;;;;;;;;;;4433495;32;20213;-54
2021/10/13 14:29:27;;;;;;;23.20;12.83;;;;;;;;;;4433840;32;20343;-54
2021/10/13 14:31:53;;;;;;;28.00;15.77;;;;;;;;;;4434322;32;20337;-54